Time;durP1;ratioP1;P1;durP2;ratioP2;P2;SDS_P1;SDS_P2;PMS_P1;PMS_P2;Temp;Humidity;BMP_temperature;BMP_pressure;BME280_temperature;BME280_humidity;BME280_pressure;Samples;Min_cycle;Max_cycle;Signal;HPM_P1;HPM_P2
2024/03/25 00:01:13;;;;;;;;;;;7.70;83.40;;;;;;5093581;28;19928;-60
2024/03/25 00:03:47;;;;;;;;;;;7.60;83.10;;;;;;5094608;28;19928;-62
2024/03/25 00:06:20;;;;;;;;;;;7.50;82.10;;;;;;5098062;28;19931;-61
2024/03/25 00:08:53;;;;;;;;;;;7.40;81.70;;;;;;5096783;28;19931;-61
2024/03/25 00:11:26;;;;;;;;;;;7.30;81.60;;;;;;5095846;28;20395;-61
2024/03/25 00:13:58;;;;;;;;;;;7.30;81.40;;;;;;5095699;28;19935;-60
2024/03/25 00:16:30;;;;;;;;;;;7.30;81.40;;;;;;5095916;28;20007;-61
2024/03/25 00:19:04;;;;;;;;;;;7.20;81.30;;;;;;5087213;28;19939;-61
2024/03/25 00:21:38;;;;;;;;;;;7.20;81.30;;;;;;5095398;28;19935;-60
2024/03/25 00:24:09;;;;;;;;;;;7.20;81.30;;;;;;5097755;28;19981;-62
2024/03/25 00:26:43;;;;;;;;;;;7.20;81.50;;;;;;5090838;28;19924;-61
2024/03/25 00:29:14;;;;;;;;;;;7.20;81.70;;;;;;5098396;28;20014;-61
2024/03/25 00:31:48;;;;;;;;;;;7.10;81.70;;;;;;5098251;28;19924;-61
2024/03/25 00:34:21;;;;;;;;;;;7.10;82.10;;;;;;5094426;28;19978;-62
2024/03/25 00:36:54;;;;;;;;;;;7.00;82.20;;;;;;5091876;28;19924;-62
2024/03/25 00:39:34;;;;;;;;;;;7.10;82.40;;;;;;5096819;28;19931;-61
2024/03/25 00:42:08;;;;;;;;;;;7.00;82.60;;;;;;5084682;28;19924;-62
2024/03/25 00:44:39;;;;;;;;;;;7.00;82.80;;;;;;5097328;28;19931;-60
2024/03/25 00:47:13;;;;;;;;;;;6.90;83.10;;;;;;5093473;28;19924;-60
2024/03/25 00:49:47;;;;;;;;;;;6.90;83.30;;;;;;5096183;28;19935;-61
2024/03/25 00:52:21;;;;;;;;;;;6.90;83.50;;;;;;5093492;28;19935;-60
2024/03/25 00:54:52;;;;;;;;;;;6.80;83.70;;;;;;5095327;28;20019;-60
2024/03/25 00:57:26;;;;;;;;;;;6.80;83.90;;;;;;5078941;28;20285;-61
2024/03/25 00:59:57;;;;;;;;;;;6.80;83.90;;;;;;5078204;28;19924;-61
2024/03/25 01:02:31;;;;;;;;;;;6.80;83.90;;;;;;5096103;28;19928;-61
2024/03/25 01:05:05;;;;;;;;;;;6.70;83.90;;;;;;5091737;28;19931;-62
2024/03/25 01:07:37;;;;;;;;;;;6.70;84.00;;;;;;5095764;28;19943;-62
2024/03/25 01:10:10;;;;;;;;;;;6.70;84.00;;;;;;5093113;28;19970;-62
2024/03/25 01:12:43;;;;;;;;;;;6.70;84.10;;;;;;5096770;28;19924;-73
2024/03/25 01:15:16;;;;;;;;;;;6.70;84.20;;;;;;5097452;28;20454;-74
2024/03/25 01:17:42;;;;;;;;;;;6.70;84.10;;;;;;5093864;28;19979;-73
2024/03/25 01:20:16;;;;;;;;;;;6.70;84.20;;;;;;5082783;28;20010;-73
2024/03/25 01:22:49;;;;;;;;;;;6.70;84.20;;;;;;5097004;28;19934;-73
2024/03/25 01:25:15;;;;;;;;;;;6.70;84.30;;;;;;5098015;28;20301;-72
2024/03/25 01:27:48;;;;;;;;;;;6.70;84.40;;;;;;5094790;28;19930;-72
2024/03/25 01:30:20;;;;;;;;;;;6.70;84.30;;;;;;5090933;28;19924;-72
2024/03/25 01:32:53;;;;;;;;;;;6.70;84.20;;;;;;5090878;28;20303;-71
2024/03/25 01:35:27;;;;;;;;;;;6.70;84.40;;;;;;5093266;28;20018;-71
2024/03/25 01:38:00;;;;;;;;;;;6.70;84.50;;;;;;5092183;28;19946;-72
2024/03/25 01:40:33;;;;;;;;;;;6.70;84.50;;;;;;5095075;28;19924;-74
2024/03/25 01:43:07;;;;;;;;;;;6.70;84.40;;;;;;5092684;28;19928;-74
2024/03/25 01:45:39;;;;;;;;;;;6.70;84.20;;;;;;5095710;28;20003;-73
2024/03/25 01:48:13;;;;;;;;;;;6.70;84.10;;;;;;5095023;28;19969;-73
2024/03/25 01:50:47;;;;;;;;;;;6.60;84.10;;;;;;5096079;28;19940;-72
2024/03/25 01:53:21;;;;;;;;;;;6.60;84.00;;;;;;5096449;28;19935;-73
2024/03/25 01:55:56;;;;;;;;;;;6.70;84.00;;;;;;5096059;28;20501;-71
2024/03/25 01:58:29;;;;;;;;;;;6.70;84.00;;;;;;5091976;28;19939;-72
2024/03/25 02:01:03;;;;;;;;;;;6.60;83.90;;;;;;5099084;28;19997;-72
2024/03/25 02:03:36;;;;;;;;;;;6.60;83.90;;;;;;5095521;28;19948;-74
2024/03/25 02:06:11;;;;;;;;;;;6.60;83.90;;;;;;5097497;28;19928;-72
2024/03/25 02:08:45;;;;;;;;;;;6.60;84.00;;;;;;5100395;28;20475;-71
2024/03/25 02:11:17;;;;;;;;;;;6.70;83.90;;;;;;5095871;28;19931;-72
2024/03/25 02:13:50;;;;;;;;;;;6.70;83.80;;;;;;5094013;28;19933;-73
2024/03/25 02:16:23;;;;;;;;;;;6.60;83.90;;;;;;5097582;28;19924;-74
2024/03/25 02:18:55;;;;;;;;;;;6.70;84.00;;;;;;5097902;28;19924;-71
2024/03/25 02:21:30;;;;;;;;;;;6.60;84.10;;;;;;5095227;28;20405;-73
2024/03/25 02:24:06;;;;;;;;;;;6.60;84.20;;;;;;5093733;28;19932;-64
2024/03/25 02:26:40;;;;;;;;;;;6.60;84.10;;;;;;5088236;28;20291;-64
2024/03/25 02:29:14;;;;;;;;;;;6.60;84.20;;;;;;5091002;28;20378;-63
2024/03/25 02:31:47;;;;;;;;;;;6.70;84.20;;;;;;5093279;28;20402;-64
2024/03/25 02:34:20;;;;;;;;;;;6.70;84.20;;;;;;5098045;28;19939;-64
2024/03/25 02:36:53;;;;;;;;;;;6.70;84.20;;;;;;5097172;28;20438;-62
2024/03/25 02:39:26;;;;;;;;;;;6.70;84.10;;;;;;5096522;28;19997;-63
2024/03/25 02:41:59;;;;;;;;;;;6.70;84.50;;;;;;5098741;28;19992;-64
2024/03/25 02:44:33;;;;;;;;;;;6.70;84.40;;;;;;5099558;28;19924;-64
2024/03/25 02:47:06;;;;;;;;;;;6.70;84.50;;;;;;5093174;28;19932;-63
2024/03/25 02:49:34;;;;;;;;;;;6.70;84.60;;;;;;5098708;28;19923;-64
2024/03/25 02:52:06;;;;;;;;;;;6.70;84.70;;;;;;5091435;28;20015;-64
2024/03/25 02:54:40;;;;;;;;;;;6.70;84.70;;;;;;5098727;28;19928;-64
2024/03/25 02:57:13;;;;;;;;;;;6.70;84.80;;;;;;5096333;28;19935;-64
2024/03/25 02:59:47;;;;;;;;;;;6.70;84.80;;;;;;5093093;28;19938;-64
2024/03/25 03:02:19;;;;;;;;;;;6.70;84.70;;;;;;5089718;28;20052;-64
2024/03/25 03:04:52;;;;;;;;;;;6.60;84.70;;;;;;5087729;28;19940;-65
2024/03/25 03:07:24;;;;;;;;;;;6.60;84.60;;;;;;5089376;28;20389;-65
2024/03/25 03:09:57;;;;;;;;;;;6.60;84.70;;;;;;5092011;28;19932;-64
2024/03/25 03:12:30;;;;;;;;;;;6.60;84.70;;;;;;5097564;28;20025;-63
2024/03/25 03:15:04;;;;;;;;;;;6.60;84.80;;;;;;5082669;28;19932;-63
2024/03/25 03:17:37;;;;;;;;;;;6.60;84.70;;;;;;5092808;28;19955;-65
2024/03/25 03:20:11;;;;;;;;;;;6.60;84.70;;;;;;5089161;28;19928;-64
2024/03/25 03:22:43;;;;;;;;;;;6.60;84.70;;;;;;5095319;28;19992;-65
2024/03/25 03:25:16;;;;;;;;;;;6.60;84.70;;;;;;5093109;28;20557;-62
2024/03/25 03:27:50;;;;;;;;;;;6.60;84.80;;;;;;5088441;28;19924;-64
2024/03/25 03:30:24;;;;;;;;;;;6.60;84.90;;;;;;5089778;28;19934;-64
2024/03/25 03:32:57;;;;;;;;;;;6.60;85.00;;;;;;5087552;28;19934;-60
2024/03/25 03:35:30;;;;;;;;;;;6.60;84.90;;;;;;5085997;28;20418;-61
2024/03/25 03:38:02;;;;;;;;;;;6.60;84.90;;;;;;5091412;28;19993;-61
2024/03/25 03:40:35;;;;;;;;;;;6.60;85.00;;;;;;5088587;28;19928;-61
2024/03/25 03:43:08;;;;;;;;;;;6.60;85.10;;;;;;5094249;28;19928;-61
2024/03/25 03:45:42;;;;;;;;;;;6.60;85.10;;;;;;5097095;28;19927;-61
2024/03/25 03:48:14;;;;;;;;;;;6.50;85.00;;;;;;5099037;28;19928;-60
2024/03/25 03:50:47;;;;;;;;;;;6.50;85.10;;;;;;5097923;28;19932;-60
2024/03/25 03:53:19;;;;;;;;;;;6.50;85.40;;;;;;5098630;28;19928;-62
2024/03/25 03:55:55;;;;;;;;;;;6.50;85.40;;;;;;5098121;28;19928;-61
2024/03/25 03:58:28;;;;;;;;;;;6.40;85.50;;;;;;5099674;28;19946;-61
2024/03/25 04:01:04;;;;;;;;;;;6.40;85.60;;;;;;5094330;28;19977;-60
2024/03/25 04:03:36;;;;;;;;;;;6.40;85.60;;;;;;5098847;28;19969;-61
2024/03/25 04:06:10;;;;;;;;;;;6.40;85.60;;;;;;5095271;28;19963;-60
2024/03/25 04:08:42;;;;;;;;;;;6.40;85.60;;;;;;5098135;28;19924;-61
2024/03/25 04:11:09;;;;;;;;;;;6.40;85.60;;;;;;5093967;28;19972;-61
2024/03/25 04:13:43;;;;;;;;;;;6.40;85.50;;;;;;5095485;28;19993;-61
2024/03/25 04:16:17;;;;;;;;;;;6.40;85.50;;;;;;5095887;28;19928;-61
2024/03/25 04:18:50;;;;;;;;;;;6.50;85.50;;;;;;5097272;28;20013;-60
2024/03/25 04:21:23;;;;;;;;;;;6.40;85.30;;;;;;5093304;28;19928;-61
2024/03/25 04:23:55;;;;;;;;;;;6.40;85.20;;;;;;5098266;28;20286;-61
2024/03/25 04:26:21;;;;;;;;;;;6.40;85.00;;;;;;5096377;28;19928;-61
2024/03/25 04:28:55;;;;;;;;;;;6.40;85.20;;;;;;5095720;28;20011;-60
2024/03/25 04:31:29;;;;;;;;;;;6.40;84.90;;;;;;5097314;28;19935;-60
2024/03/25 04:34:01;;;;;;;;;;;6.40;84.80;;;;;;5096689;28;19964;-60
2024/03/25 04:36:28;;;;;;;;;;;6.40;84.70;;;;;;5093985;28;20086;-61
